BAW438W EGLL-EHAM
Flight info
| Callsign | BAW438W |
|---|---|
| Flight time | 0h 41m |
| Altitude | 27000 |
| Route | BPK Q295 BRAIN M197 REDFA |
| Aircraft | A320/M-SDE3FGHIRWY/LB1 |
Departure
| Time | 2026-04-30 14:31 |
|---|---|
| Airport | London Heathrow Airport (EGLL) |
Arrival
| Time | 2026-04-30 15:12 |
|---|---|
| Airport | Amsterdam Airport Schiphol (EHAM) |
| Time | Latitude | Longitude | Altitude | Speed | Heading |
|---|---|---|---|---|---|
| 2026-04-30 13:57 | 51.47417 | -0.48953 | 86 ft | 0 kts | 179° |
| 2026-04-30 14:18 | 51.47426 | -0.48953 | 90 ft | 4 kts | 179° |
| 2026-04-30 14:18 | 51.47462 | -0.48938 | 87 ft | 4 kts | 229° |
| 2026-04-30 14:19 | 51.47494 | -0.48912 | 89 ft | 2 kts | 135° |
| 2026-04-30 14:19 | 51.47507 | -0.48933 | 91 ft | 0 kts | 135° |
| 2026-04-30 14:22 | 51.47506 | -0.48932 | 88 ft | 1 kts | 135° |
| 2026-04-30 14:22 | 51.47491 | -0.48890 | 88 ft | 7 kts | 111° |
| 2026-04-30 14:23 | 51.47486 | -0.48661 | 88 ft | 13 kts | 90° |
| 2026-04-30 14:23 | 51.47402 | -0.48475 | 86 ft | 16 kts | 180° |
| 2026-04-30 14:24 | 51.47141 | -0.48473 | 86 ft | 20 kts | 180° |
| 2026-04-30 14:24 | 51.47003 | -0.48470 | 87 ft | 19 kts | 180° |
| 2026-04-30 14:25 | 51.46756 | -0.48469 | 86 ft | 16 kts | 179° |
| 2026-04-30 14:25 | 51.46617 | -0.48468 | 86 ft | 4 kts | 180° |
| 2026-04-30 14:26 | 51.46609 | -0.48468 | 86 ft | 0 kts | 180° |
| 2026-04-30 14:29 | 51.46560 | -0.48467 | 86 ft | 12 kts | 180° |
| 2026-04-30 14:29 | 51.46478 | -0.48407 | 87 ft | 0 kts | 88° |
| 2026-04-30 14:30 | 51.46483 | -0.47554 | 85 ft | 98 kts | 89° |
| 2026-04-30 14:31 | 51.46490 | -0.44481 | 539 ft | 154 kts | 88° |
| 2026-04-30 14:31 | 51.46780 | -0.40981 | 1568 ft | 181 kts | 66° |
| 2026-04-30 14:31 | 51.47786 | -0.39491 | 1859 ft | 217 kts | 33° |
| 2026-04-30 14:32 | 51.50633 | -0.36651 | 3073 ft | 255 kts | 38° |
| 2026-04-30 14:32 | 51.52118 | -0.35039 | 4000 ft | 261 kts | 39° |
| 2026-04-30 14:32 | 51.53626 | -0.33402 | 4837 ft | 269 kts | 39° |
| 2026-04-30 14:33 | 51.55204 | -0.31697 | 5672 ft | 277 kts | 39° |
| 2026-04-30 14:33 | 51.58494 | -0.28183 | 7373 ft | 289 kts | 38° |
| 2026-04-30 14:33 | 51.60178 | -0.26397 | 8389 ft | 292 kts | 38° |
| 2026-04-30 14:34 | 51.61888 | -0.24592 | 9285 ft | 295 kts | 38° |
| 2026-04-30 14:34 | 51.63611 | -0.22771 | 10164 ft | 298 kts | 38° |
| 2026-04-30 14:34 | 51.65369 | -0.20905 | 10700 ft | 313 kts | 38° |
| 2026-04-30 14:34 | 51.67250 | -0.18890 | 10950 ft | 336 kts | 38° |
| 2026-04-30 14:35 | 51.71252 | -0.14597 | 12168 ft | 350 kts | 39° |
| 2026-04-30 14:35 | 51.73054 | -0.11979 | 12869 ft | 349 kts | 53° |
| 2026-04-30 14:35 | 51.74437 | -0.08785 | 13591 ft | 347 kts | 66° |
| 2026-04-30 14:36 | 51.75340 | -0.05198 | 14264 ft | 345 kts | 78° |
| 2026-04-30 14:36 | 51.75765 | -0.01385 | 14845 ft | 346 kts | 85° |
| 2026-04-30 14:36 | 51.76084 | 0.02496 | 15365 ft | 351 kts | 85° |
| 2026-04-30 14:36 | 51.76404 | 0.06417 | 15965 ft | 354 kts | 85° |
| 2026-04-30 14:37 | 51.76725 | 0.10387 | 16567 ft | 358 kts | 85° |
| 2026-04-30 14:37 | 51.77050 | 0.14387 | 17173 ft | 362 kts | 85° |
| 2026-04-30 14:37 | 51.77381 | 0.18441 | 17762 ft | 366 kts | 86° |
| 2026-04-30 14:37 | 51.77713 | 0.22528 | 18361 ft | 369 kts | 86° |
| 2026-04-30 14:38 | 51.78048 | 0.26660 | 18894 ft | 373 kts | 86° |
| 2026-04-30 14:38 | 51.78389 | 0.30830 | 19473 ft | 375 kts | 86° |
| 2026-04-30 14:38 | 51.78731 | 0.35013 | 20064 ft | 377 kts | 85° |
| 2026-04-30 14:38 | 51.79071 | 0.39229 | 20653 ft | 379 kts | 86° |
| 2026-04-30 14:39 | 51.79409 | 0.43457 | 21224 ft | 380 kts | 86° |
| 2026-04-30 14:39 | 51.79747 | 0.47707 | 21771 ft | 382 kts | 86° |
| 2026-04-30 14:39 | 51.80082 | 0.51973 | 22290 ft | 384 kts | 86° |
| 2026-04-30 14:40 | 51.80750 | 0.60578 | 23339 ft | 388 kts | 86° |
| 2026-04-30 14:40 | 51.81108 | 0.64921 | 23812 ft | 392 kts | 83° |
| 2026-04-30 14:40 | 51.81737 | 0.69237 | 24224 ft | 396 kts | 79° |
| 2026-04-30 14:40 | 51.82402 | 0.73521 | 24635 ft | 398 kts | 79° |
| 2026-04-30 14:41 | 51.83075 | 0.77881 | 25053 ft | 401 kts | 79° |
| 2026-04-30 14:41 | 51.83752 | 0.82268 | 25463 ft | 403 kts | 79° |
| 2026-04-30 14:41 | 51.84488 | 0.86665 | 25867 ft | 406 kts | 78° |
| 2026-04-30 14:41 | 51.85285 | 0.91067 | 26265 ft | 409 kts | 77° |
| 2026-04-30 14:42 | 51.86116 | 0.95484 | 26664 ft | 412 kts | 76° |
| 2026-04-30 14:42 | 51.86958 | 0.99925 | 27021 ft | 414 kts | 76° |
| 2026-04-30 14:42 | 51.87798 | 1.04397 | 27217 ft | 416 kts | 76° |
| 2026-04-30 14:42 | 51.88618 | 1.08833 | 27253 ft | 408 kts | 77° |
| 2026-04-30 14:43 | 51.89417 | 1.13223 | 27255 ft | 405 kts | 77° |
| 2026-04-30 14:43 | 51.90200 | 1.17603 | 27264 ft | 405 kts | 77° |
| 2026-04-30 14:43 | 51.90978 | 1.21979 | 27265 ft | 404 kts | 77° |
| 2026-04-30 14:43 | 51.91753 | 1.26352 | 27263 ft | 404 kts | 77° |
| 2026-04-30 14:44 | 51.92530 | 1.30730 | 27260 ft | 404 kts | 77° |
| 2026-04-30 14:44 | 51.93307 | 1.35103 | 27260 ft | 404 kts | 77° |
| 2026-04-30 14:44 | 51.94083 | 1.39482 | 27269 ft | 404 kts | 77° |
| 2026-04-30 14:44 | 51.94859 | 1.43856 | 27268 ft | 404 kts | 77° |
| 2026-04-30 14:45 | 51.95634 | 1.48221 | 27268 ft | 404 kts | 77° |
| 2026-04-30 14:45 | 51.96409 | 1.52597 | 27266 ft | 404 kts | 77° |
| 2026-04-30 14:45 | 51.97172 | 1.56932 | 27268 ft | 404 kts | 77° |
| 2026-04-30 14:45 | 51.97939 | 1.61316 | 27268 ft | 404 kts | 77° |
| 2026-04-30 14:46 | 51.98705 | 1.65708 | 27277 ft | 404 kts | 77° |
| 2026-04-30 14:46 | 51.99464 | 1.70095 | 27277 ft | 404 kts | 77° |
| 2026-04-30 14:46 | 52.00186 | 1.74509 | 27278 ft | 404 kts | 78° |
| 2026-04-30 14:46 | 52.00876 | 1.78928 | 27280 ft | 404 kts | 79° |
| 2026-04-30 14:47 | 52.01551 | 1.83358 | 27285 ft | 404 kts | 79° |
| 2026-04-30 14:47 | 52.02220 | 1.87790 | 27289 ft | 404 kts | 79° |
| 2026-04-30 14:47 | 52.02891 | 1.92228 | 27287 ft | 404 kts | 79° |
| 2026-04-30 14:47 | 52.03567 | 1.96655 | 27278 ft | 404 kts | 78° |
| 2026-04-30 14:48 | 52.04247 | 2.01087 | 27281 ft | 404 kts | 78° |
| 2026-04-30 14:48 | 52.04930 | 2.05513 | 27284 ft | 404 kts | 78° |
| 2026-04-30 14:48 | 52.05859 | 2.09771 | 27057 ft | 397 kts | 70° |
| 2026-04-30 14:48 | 52.06925 | 2.13887 | 26807 ft | 393 kts | 70° |
| 2026-04-30 14:49 | 52.07984 | 2.17963 | 26566 ft | 390 kts | 70° |
| 2026-04-30 14:49 | 52.09040 | 2.22019 | 26308 ft | 389 kts | 70° |
| 2026-04-30 14:49 | 52.10090 | 2.26059 | 26060 ft | 387 kts | 70° |
| 2026-04-30 14:49 | 52.11135 | 2.30090 | 25816 ft | 385 kts | 70° |
| 2026-04-30 14:50 | 52.13197 | 2.38103 | 25323 ft | 383 kts | 70° |
| 2026-04-30 14:50 | 52.14217 | 2.42088 | 25090 ft | 381 kts | 70° |
| 2026-04-30 14:51 | 52.16233 | 2.49971 | 24623 ft | 378 kts | 70° |
| 2026-04-30 14:51 | 52.17241 | 2.53907 | 24389 ft | 376 kts | 70° |
| 2026-04-30 14:51 | 52.19242 | 2.61750 | 23926 ft | 373 kts | 70° |
| 2026-04-30 14:52 | 52.20231 | 2.65650 | 23667 ft | 372 kts | 70° |
| 2026-04-30 14:52 | 52.22205 | 2.73432 | 23123 ft | 369 kts | 70° |
| 2026-04-30 14:52 | 52.23187 | 2.77305 | 22857 ft | 368 kts | 70° |
| 2026-04-30 14:53 | 52.25130 | 2.84994 | 22330 ft | 365 kts | 70° |
| 2026-04-30 14:53 | 52.26093 | 2.88821 | 22066 ft | 364 kts | 70° |
| 2026-04-30 14:54 | 52.27995 | 2.96404 | 21557 ft | 362 kts | 70° |
| 2026-04-30 14:54 | 52.29883 | 3.03960 | 21046 ft | 357 kts | 70° |
| 2026-04-30 14:55 | 52.31730 | 3.11370 | 20282 ft | 349 kts | 71° |
| 2026-04-30 14:55 | 52.32642 | 3.15032 | 19836 ft | 347 kts | 71° |
| 2026-04-30 14:55 | 52.34445 | 3.22296 | 18961 ft | 343 kts | 71° |
| 2026-04-30 14:56 | 52.36222 | 3.29499 | 18021 ft | 339 kts | 71° |
| 2026-04-30 14:56 | 52.37964 | 3.36581 | 17149 ft | 332 kts | 71° |
| 2026-04-30 14:57 | 52.38823 | 3.40078 | 16714 ft | 329 kts | 71° |
| 2026-04-30 14:57 | 52.40515 | 3.46979 | 15848 ft | 324 kts | 71° |
| 2026-04-30 14:58 | 52.42181 | 3.53793 | 14996 ft | 320 kts | 71° |
| 2026-04-30 14:58 | 52.43003 | 3.57162 | 14578 ft | 318 kts | 71° |
| 2026-04-30 14:58 | 52.43789 | 3.64040 | 13686 ft | 306 kts | 103° |
| 2026-04-30 14:59 | 52.42315 | 3.70525 | 12783 ft | 301 kts | 112° |
| 2026-04-30 15:00 | 52.39961 | 3.79919 | 11660 ft | 294 kts | 112° |
| 2026-04-30 15:00 | 52.38429 | 3.86075 | 10926 ft | 290 kts | 112° |
| 2026-04-30 15:01 | 52.36925 | 3.92163 | 10207 ft | 286 kts | 112° |
| 2026-04-30 15:01 | 52.36439 | 3.94138 | 9941 ft | 278 kts | 112° |
| 2026-04-30 15:01 | 52.34831 | 4.00735 | 9042 ft | 262 kts | 112° |
| 2026-04-30 15:02 | 52.34158 | 4.03510 | 8657 ft | 263 kts | 112° |
| 2026-04-30 15:02 | 52.33713 | 4.05350 | 8407 ft | 263 kts | 112° |
| 2026-04-30 15:03 | 52.31749 | 4.13600 | 7328 ft | 253 kts | 112° |
| 2026-04-30 15:03 | 52.30541 | 4.18790 | 6693 ft | 237 kts | 112° |
| 2026-04-30 15:04 | 52.29408 | 4.23677 | 6033 ft | 223 kts | 112° |
| 2026-04-30 15:04 | 52.27861 | 4.30495 | 5190 ft | 206 kts | 112° |
| 2026-04-30 15:05 | 52.26432 | 4.36875 | 4439 ft | 191 kts | 113° |
| 2026-04-30 15:06 | 52.25589 | 4.40778 | 3946 ft | 177 kts | 112° |
| 2026-04-30 15:06 | 52.24824 | 4.44421 | 3468 ft | 163 kts | 112° |
| 2026-04-30 15:07 | 52.24059 | 4.47867 | 2955 ft | 162 kts | 112° |
| 2026-04-30 15:07 | 52.23213 | 4.51297 | 2537 ft | 163 kts | 109° |
| 2026-04-30 15:08 | 52.23016 | 4.55003 | 2396 ft | 164 kts | 93° |
| 2026-04-30 15:08 | 52.23716 | 4.60269 | 1925 ft | 155 kts | 63° |
| 2026-04-30 15:09 | 52.24832 | 4.63147 | 1581 ft | 149 kts | 64° |
| 2026-04-30 15:09 | 52.25887 | 4.65872 | 1133 ft | 132 kts | 65° |
| 2026-04-30 15:10 | 52.26841 | 4.68351 | 778 ft | 130 kts | 62° |
| 2026-04-30 15:11 | 52.28754 | 4.73312 | 97 ft | 129 kts | 62° |
| 2026-04-30 15:11 | 52.29550 | 4.75388 | -2 ft | 65 kts | 58° |
| 2026-04-30 15:12 | 52.29991 | 4.76490 | -2 ft | 18 kts | 41° |
| 2026-04-30 15:13 | 52.30201 | 4.76689 | -1 ft | 17 kts | 27° |
| 2026-04-30 15:14 | 52.30511 | 4.76964 | -1 ft | 15 kts | 327° |
| 2026-04-30 15:14 | 52.30652 | 4.77018 | -1 ft | 8 kts | 92° |
| 2026-04-30 15:16 | 52.30716 | 4.77089 | -1 ft | 0 kts | 3° |